עמוד ראשי
METAR-TAF:

METAR-TAF

שדות תעופה :

Fairbanks, אלסקה, ארצות הברית

קו רוחב: 64-48-14N, קו אורך: 147-52-34W, גובה: 132מטר

תצפית מזג אוויר נוכחית

הדו"ח נערך לפני 56דקות, בשעה 10:53 UTC
רוח 4קשר מכיוון צפון-מערב
טמפרטורת -1 צלסיוס
לחות 69%
לחץ 1025 hPa
ראות: 16.1קילומטר
עננים פזורים בגובה 15000רגל
עננים בינוניים בגובה 20000רגל

METAR: PAFA 171053Z 31004KT 10SM SCT150 BKN200 M01/M06 A3026 RMK AO2 SLP256 T10061061

זמן: 03:49 (11:49 UTC)

תחזית

הדו"ח נערך לפני 6 שעות ו 26דקות, בשעה 05:23 UTC
תחזית בתוקף מ 17 ב 06 UTC עד 18 ב 12 UTC
רוח 5קשר מכיוון מערב
ראות: 10קילומטר
עננים פזורים בגובה 8000רגל
עננים פזורים בגובה 14000רגל
עננים בינוניים בגובה 20000רגל
מ 17 ב 1900UTC
רוח 7קשר מכיוון מזרח
ראות: 10קילומטר
עננים פזורים בגובה 16000רגל
עננים בינוניים בגובה 20000רגל

TAF: PAFA 170523Z 1706/1812 27005KT P6SM SCT080 SCT140 BKN200 FM171900 09007KT P6SM SCT160 BKN200

תצפיות ותחזיות מזג אוויר לגבי יותר מ- 4,000 שדות תעופה ברחבי העולם. דוחות METAR ו- TAF.

התחנות הזמינות מסומנות בנקודות צהובות ואדומות על גבי המפה.

העבר את העכבר לנקודה הצבעונית על מנת לראות את שם התחנה.

לאחר מכן, לחץ כדי לראות את תוכן ואת תחזיות מזג האוויר.

כדי לשנות את המפה: לחץ על הכפתורים הירוקים עם הפלוס השחור כדי להתקרב; על הכפתור הירוק עם המקף כדי להתרחק; או בחיצים הירוקים למפות סמוכות.


METAR-TAF: